sensor_id;sensor_type;location;lat;lon;timestamp;P1;durP1;ratioP1;P2;durP2;ratioP2
71183;SDS011;58887;51.980;4.464;2023-01-16T00:02:00;1.31;;;1.31;;
71183;SDS011;58887;51.980;4.464;2023-01-16T00:04:26;1.43;;;1.42;;
71183;SDS011;58887;51.980;4.464;2023-01-16T00:06:52;1.29;;;1.27;;
71183;SDS011;58887;51.980;4.464;2023-01-16T00:09:18;1.32;;;1.30;;
71183;SDS011;58887;51.980;4.464;2023-01-16T00:11:44;1.30;;;1.29;;
71183;SDS011;58887;51.980;4.464;2023-01-16T00:14:09;1.19;;;1.19;;
71183;SDS011;58887;51.980;4.464;2023-01-16T00:16:35;1.25;;;1.25;;
71183;SDS011;58887;51.980;4.464;2023-01-16T00:19:00;1.32;;;1.32;;
71183;SDS011;58887;51.980;4.464;2023-01-16T00:21:26;1.37;;;1.35;;
71183;SDS011;58887;51.980;4.464;2023-01-16T00:23:55;1.50;;;1.48;;
71183;SDS011;58887;51.980;4.464;2023-01-16T00:26:23;1.38;;;1.36;;
71183;SDS011;58887;51.980;4.464;2023-01-16T00:28:50;1.50;;;1.50;;
71183;SDS011;58887;51.980;4.464;2023-01-16T00:31:15;1.36;;;1.36;;
71183;SDS011;58887;51.980;4.464;2023-01-16T00:33:42;1.44;;;1.44;;
71183;SDS011;58887;51.980;4.464;2023-01-16T00:36:11;1.56;;;1.56;;
71183;SDS011;58887;51.980;4.464;2023-01-16T00:38:37;1.35;;;1.33;;
71183;SDS011;58887;51.980;4.464;2023-01-16T00:41:03;1.49;;;1.46;;
71183;SDS011;58887;51.980;4.464;2023-01-16T00:43:29;1.33;;;1.29;;
71183;SDS011;58887;51.980;4.464;2023-01-16T00:45:54;1.88;;;1.83;;
71183;SDS011;58887;51.980;4.464;2023-01-16T00:48:21;1.62;;;1.59;;
71183;SDS011;58887;51.980;4.464;2023-01-16T00:50:47;1.94;;;1.92;;
71183;SDS011;58887;51.980;4.464;2023-01-16T00:53:13;1.64;;;1.63;;
71183;SDS011;58887;51.980;4.464;2023-01-16T00:55:39;1.81;;;1.79;;
71183;SDS011;58887;51.980;4.464;2023-01-16T00:58:06;1.87;;;1.85;;
71183;SDS011;58887;51.980;4.464;2023-01-16T01:00:35;1.80;;;1.77;;
71183;SDS011;58887;51.980;4.464;2023-01-16T01:03:02;2.00;;;1.95;;
71183;SDS011;58887;51.980;4.464;2023-01-16T01:05:28;2.22;;;2.17;;
71183;SDS011;58887;51.980;4.464;2023-01-16T01:07:54;2.50;;;2.41;;
71183;SDS011;58887;51.980;4.464;2023-01-16T01:10:19;2.54;;;2.43;;
71183;SDS011;58887;51.980;4.464;2023-01-16T01:12:45;2.68;;;2.57;;
71183;SDS011;58887;51.980;4.464;2023-01-16T01:15:10;2.94;;;2.84;;
71183;SDS011;58887;51.980;4.464;2023-01-16T01:17:36;2.83;;;2.75;;
71183;SDS011;58887;51.980;4.464;2023-01-16T01:20:02;2.75;;;2.69;;
71183;SDS011;58887;51.980;4.464;2023-01-16T01:22:29;2.99;;;2.91;;
71183;SDS011;58887;51.980;4.464;2023-01-16T01:24:54;3.26;;;3.21;;
71183;SDS011;58887;51.980;4.464;2023-01-16T01:27:20;3.28;;;3.26;;
71183;SDS011;58887;51.980;4.464;2023-01-16T01:29:45;3.32;;;3.32;;
71183;SDS011;58887;51.980;4.464;2023-01-16T01:32:10;3.53;;;3.50;;
71183;SDS011;58887;51.980;4.464;2023-01-16T01:34:36;3.16;;;3.14;;
71183;SDS011;58887;51.980;4.464;2023-01-16T01:37:02;2.95;;;2.91;;
71183;SDS011;58887;51.980;4.464;2023-01-16T01:39:30;3.31;;;3.27;;
71183;SDS011;58887;51.980;4.464;2023-01-16T01:41:56;3.32;;;3.30;;
71183;SDS011;58887;51.980;4.464;2023-01-16T01:47:09;3.32;;;3.30;;
71183;SDS011;58887;51.980;4.464;2023-01-16T01:49:36;2.93;;;2.93;;
71183;SDS011;58887;51.980;4.464;2023-01-16T01:52:03;2.89;;;2.89;;
71183;SDS011;58887;51.980;4.464;2023-01-16T01:54:36;3.62;;;3.61;;
71183;SDS011;58887;51.980;4.464;2023-01-16T01:57:08;3.87;;;3.87;;
71183;SDS011;58887;51.980;4.464;2023-01-16T01:59:43;3.45;;;3.45;;
71183;SDS011;58887;51.980;4.464;2023-01-16T02:02:16;4.03;;;4.02;;
71183;SDS011;58887;51.980;4.464;2023-01-16T02:04:48;3.69;;;3.69;;
71183;SDS011;58887;51.980;4.464;2023-01-16T02:07:21;3.35;;;3.35;;
71183;SDS011;58887;51.980;4.464;2023-01-16T02:09:52;3.23;;;3.23;;
71183;SDS011;58887;51.980;4.464;2023-01-16T02:12:27;2.89;;;2.87;;
71183;SDS011;58887;51.980;4.464;2023-01-16T02:14:53;2.57;;;2.56;;
71183;SDS011;58887;51.980;4.464;2023-01-16T02:17:22;2.53;;;2.53;;
71183;SDS011;58887;51.980;4.464;2023-01-16T02:44:39;2.28;;;2.18;;
71183;SDS011;58887;51.980;4.464;2023-01-16T02:47:35;1.90;;;1.79;;
71183;SDS011;58887;51.980;4.464;2023-01-16T02:50:36;1.63;;;1.55;;
71183;SDS011;58887;51.980;4.464;2023-01-16T02:53:28;1.53;;;1.46;;
71183;SDS011;58887;51.980;4.464;2023-01-16T02:56:00;1.60;;;1.53;;
71183;SDS011;58887;51.980;4.464;2023-01-16T02:58:35;1.47;;;1.38;;
71183;SDS011;58887;51.980;4.464;2023-01-16T03:01:10;1.35;;;1.26;;
71183;SDS011;58887;51.980;4.464;2023-01-16T03:03:38;1.39;;;1.30;;
71183;SDS011;58887;51.980;4.464;2023-01-16T03:17:24;2.22;;;2.15;;
71183;SDS011;58887;51.980;4.464;2023-01-16T03:23:12;2.14;;;2.09;;
71183;SDS011;58887;51.980;4.464;2023-01-16T03:26:45;1.90;;;1.84;;
71183;SDS011;58887;51.980;4.464;2023-01-16T03:29:07;1.86;;;1.82;;
71183;SDS011;58887;51.980;4.464;2023-01-16T03:31:54;1.83;;;1.78;;
71183;SDS011;58887;51.980;4.464;2023-01-16T03:37:08;1.49;;;1.46;;
71183;SDS011;58887;51.980;4.464;2023-01-16T03:39:41;1.67;;;1.64;;
71183;SDS011;58887;51.980;4.464;2023-01-16T03:42:13;1.76;;;1.74;;
71183;SDS011;58887;51.980;4.464;2023-01-16T03:44:46;1.91;;;1.91;;
71183;SDS011;58887;51.980;4.464;2023-01-16T03:47:19;1.56;;;1.54;;
71183;SDS011;58887;51.980;4.464;2023-01-16T03:49:52;1.54;;;1.49;;
71183;SDS011;58887;51.980;4.464;2023-01-16T03:52:25;1.41;;;1.36;;
71183;SDS011;58887;51.980;4.464;2023-01-16T03:55:11;1.34;;;1.29;;
71183;SDS011;58887;51.980;4.464;2023-01-16T03:57:49;1.49;;;1.41;;
71183;SDS011;58887;51.980;4.464;2023-01-16T04:00:23;1.29;;;1.19;;
71183;SDS011;58887;51.980;4.464;2023-01-16T04:03:04;1.34;;;1.22;;
71183;SDS011;58887;51.980;4.464;2023-01-16T04:05:41;1.31;;;1.19;;
71183;SDS011;58887;51.980;4.464;2023-01-16T04:08:31;1.40;;;1.28;;
71183;SDS011;58887;51.980;4.464;2023-01-16T04:11:03;1.34;;;1.21;;
71183;SDS011;58887;51.980;4.464;2023-01-16T04:13:33;1.19;;;1.04;;
71183;SDS011;58887;51.980;4.464;2023-01-16T04:16:04;1.33;;;1.14;;
71183;SDS011;58887;51.980;4.464;2023-01-16T04:18:35;1.28;;;1.09;;
71183;SDS011;58887;51.980;4.464;2023-01-16T04:21:05;1.60;;;1.36;;
71183;SDS011;58887;51.980;4.464;2023-01-16T04:23:32;1.65;;;1.41;;
71183;SDS011;58887;51.980;4.464;2023-01-16T04:25:59;1.59;;;1.35;;
71183;SDS011;58887;51.980;4.464;2023-01-16T04:28:25;1.49;;;1.22;;
71183;SDS011;58887;51.980;4.464;2023-01-16T04:30:50;1.74;;;1.43;;
71183;SDS011;58887;51.980;4.464;2023-01-16T04:33:16;1.72;;;1.43;;
71183;SDS011;58887;51.980;4.464;2023-01-16T04:35:41;1.72;;;1.43;;
71183;SDS011;58887;51.980;4.464;2023-01-16T04:38:06;1.50;;;1.26;;
71183;SDS011;58887;51.980;4.464;2023-01-16T04:40:32;1.56;;;1.30;;
71183;SDS011;58887;51.980;4.464;2023-01-16T04:42:57;1.82;;;1.50;;
71183;SDS011;58887;51.980;4.464;2023-01-16T04:45:23;1.44;;;1.20;;
71183;SDS011;58887;51.980;4.464;2023-01-16T04:47:49;1.28;;;1.08;;
71183;SDS011;58887;51.980;4.464;2023-01-16T04:50:16;1.40;;;1.20;;
71183;SDS011;58887;51.980;4.464;2023-01-16T04:52:42;1.27;;;1.10;;
71183;SDS011;58887;51.980;4.464;2023-01-16T04:55:09;1.23;;;1.06;;
71183;SDS011;58887;51.980;4.464;2023-01-16T04:57:35;1.19;;;1.03;;
71183;SDS011;58887;51.980;4.464;2023-01-16T05:00:02;1.19;;;1.01;;
71183;SDS011;58887;51.980;4.464;2023-01-16T05:02:29;1.58;;;1.36;;
71183;SDS011;58887;51.980;4.464;2023-01-16T05:04:55;1.32;;;1.11;;
71183;SDS011;58887;51.980;4.464;2023-01-16T05:07:20;1.65;;;1.37;;
71183;SDS011;58887;51.980;4.464;2023-01-16T05:09:45;1.44;;;1.21;;
71183;SDS011;58887;51.980;4.464;2023-01-16T05:12:11;1.24;;;1.04;;
71183;SDS011;58887;51.980;4.464;2023-01-16T05:14:36;1.50;;;1.25;;
71183;SDS011;58887;51.980;4.464;2023-01-16T05:17:02;1.49;;;1.23;;
71183;SDS011;58887;51.980;4.464;2023-01-16T05:19:27;1.54;;;1.26;;
71183;SDS011;58887;51.980;4.464;2023-01-16T05:21:53;1.29;;;1.07;;
71183;SDS011;58887;51.980;4.464;2023-01-16T05:24:18;1.54;;;1.28;;
71183;SDS011;58887;51.980;4.464;2023-01-16T05:26:44;1.70;;;1.39;;
71183;SDS011;58887;51.980;4.464;2023-01-16T05:29:09;1.84;;;1.53;;
71183;SDS011;58887;51.980;4.464;2023-01-16T05:31:34;1.42;;;1.20;;
71183;SDS011;58887;51.980;4.464;2023-01-16T05:34:00;1.26;;;1.09;;
71183;SDS011;58887;51.980;4.464;2023-01-16T05:36:26;1.32;;;1.15;;
71183;SDS011;58887;51.980;4.464;2023-01-16T05:38:51;1.31;;;1.16;;
71183;SDS011;58887;51.980;4.464;2023-01-16T05:41:17;1.39;;;1.23;;
71183;SDS011;58887;51.980;4.464;2023-01-16T05:43:42;1.57;;;1.38;;
71183;SDS011;58887;51.980;4.464;2023-01-16T05:46:08;1.51;;;1.34;;
71183;SDS011;58887;51.980;4.464;2023-01-16T05:48:34;1.53;;;1.33;;
71183;SDS011;58887;51.980;4.464;2023-01-16T05:51:01;1.36;;;1.17;;
71183;SDS011;58887;51.980;4.464;2023-01-16T05:53:27;1.47;;;1.26;;
71183;SDS011;58887;51.980;4.464;2023-01-16T05:55:55;1.41;;;1.21;;
71183;SDS011;58887;51.980;4.464;2023-01-16T05:58:20;1.76;;;1.52;;
71183;SDS011;58887;51.980;4.464;2023-01-16T06:00:46;1.50;;;1.30;;
71183;SDS011;58887;51.980;4.464;2023-01-16T06:03:11;1.46;;;1.28;;
71183;SDS011;58887;51.980;4.464;2023-01-16T06:05:37;1.47;;;1.29;;
71183;SDS011;58887;51.980;4.464;2023-01-16T06:08:03;1.75;;;1.54;;
71183;SDS011;58887;51.980;4.464;2023-01-16T06:10:30;1.33;;;1.16;;
71183;SDS011;58887;51.980;4.464;2023-01-16T06:12:55;1.71;;;1.48;;
71183;SDS011;58887;51.980;4.464;2023-01-16T06:15:20;1.64;;;1.39;;
71183;SDS011;58887;51.980;4.464;2023-01-16T06:17:46;1.65;;;1.39;;
71183;SDS011;58887;51.980;4.464;2023-01-16T06:20:11;1.61;;;1.33;;
71183;SDS011;58887;51.980;4.464;2023-01-16T06:22:38;2.97;;;2.48;;
71183;SDS011;58887;51.980;4.464;2023-01-16T06:25:04;1.55;;;1.40;;
71183;SDS011;58887;51.980;4.464;2023-01-16T06:27:29;1.39;;;1.26;;
71183;SDS011;58887;51.980;4.464;2023-01-16T06:29:56;1.47;;;1.32;;
71183;SDS011;58887;51.980;4.464;2023-01-16T06:32:22;1.56;;;1.41;;
71183;SDS011;58887;51.980;4.464;2023-01-16T06:34:47;1.37;;;1.26;;
71183;SDS011;58887;51.980;4.464;2023-01-16T06:37:13;1.31;;;1.19;;
71183;SDS011;58887;51.980;4.464;2023-01-16T06:39:38;1.49;;;1.36;;
71183;SDS011;58887;51.980;4.464;2023-01-16T06:42:03;2.55;;;2.50;;
71183;SDS011;58887;51.980;4.464;2023-01-16T06:44:33;1.22;;;1.22;;
71183;SDS011;58887;51.980;4.464;2023-01-16T06:47:00;0.97;;;0.97;;
71183;SDS011;58887;51.980;4.464;2023-01-16T06:49:26;1.14;;;1.14;;
71183;SDS011;58887;51.980;4.464;2023-01-16T06:51:51;0.96;;;0.93;;
71183;SDS011;58887;51.980;4.464;2023-01-16T06:54:17;2.86;;;2.81;;
71183;SDS011;58887;51.980;4.464;2023-01-16T06:56:42;1.08;;;1.08;;
71183;SDS011;58887;51.980;4.464;2023-01-16T06:59:08;0.93;;;0.93;;
71183;SDS011;58887;51.980;4.464;2023-01-16T07:01:33;1.18;;;1.18;;
71183;SDS011;58887;51.980;4.464;2023-01-16T07:03:59;1.13;;;1.13;;
71183;SDS011;58887;51.980;4.464;2023-01-16T07:06:24;2.48;;;2.48;;
71183;SDS011;58887;51.980;4.464;2023-01-16T07:08:50;1.01;;;1.01;;
71183;SDS011;58887;51.980;4.464;2023-01-16T07:11:18;1.07;;;1.07;;
71183;SDS011;58887;51.980;4.464;2023-01-16T07:13:44;1.02;;;1.02;;
71183;SDS011;58887;51.980;4.464;2023-01-16T07:16:10;1.32;;;1.30;;
71183;SDS011;58887;51.980;4.464;2023-01-16T07:18:57;1.33;;;1.21;;
71183;SDS011;58887;51.980;4.464;2023-01-16T07:21:41;1.35;;;1.20;;
71183;SDS011;58887;51.980;4.464;2023-01-16T07:24:30;1.72;;;1.50;;
71183;SDS011;58887;51.980;4.464;2023-01-16T07:27:01;1.50;;;1.26;;
71183;SDS011;58887;51.980;4.464;2023-01-16T07:29:31;1.53;;;1.28;;
71183;SDS011;58887;51.980;4.464;2023-01-16T07:31:59;1.46;;;1.22;;
71183;SDS011;58887;51.980;4.464;2023-01-16T07:34:27;1.47;;;1.22;;
71183;SDS011;58887;51.980;4.464;2023-01-16T07:36:53;1.35;;;1.12;;
71183;SDS011;58887;51.980;4.464;2023-01-16T07:39:18;1.54;;;1.26;;
71183;SDS011;58887;51.980;4.464;2023-01-16T07:41:43;1.40;;;1.12;;
71183;SDS011;58887;51.980;4.464;2023-01-16T07:44:09;1.33;;;1.07;;
71183;SDS011;58887;51.980;4.464;2023-01-16T07:46:35;1.48;;;1.23;;
71183;SDS011;58887;51.980;4.464;2023-01-16T07:49:00;1.29;;;1.11;;
71183;SDS011;58887;51.980;4.464;2023-01-16T07:51:26;1.22;;;1.02;;
71183;SDS011;58887;51.980;4.464;2023-01-16T07:53:52;1.24;;;1.04;;
71183;SDS011;58887;51.980;4.464;2023-01-16T07:56:18;1.40;;;1.18;;
71183;SDS011;58887;51.980;4.464;2023-01-16T07:58:43;1.12;;;0.94;;
71183;SDS011;58887;51.980;4.464;2023-01-16T08:01:09;1.37;;;1.13;;
71183;SDS011;58887;51.980;4.464;2023-01-16T08:03:36;1.12;;;0.91;;
71183;SDS011;58887;51.980;4.464;2023-01-16T08:06:03;1.39;;;1.14;;
71183;SDS011;58887;51.980;4.464;2023-01-16T08:08:29;1.17;;;0.96;;
71183;SDS011;58887;51.980;4.464;2023-01-16T08:10:55;1.30;;;1.07;;
71183;SDS011;58887;51.980;4.464;2023-01-16T08:13:22;1.36;;;1.14;;
71183;SDS011;58887;51.980;4.464;2023-01-16T08:15:48;1.72;;;1.46;;
71183;SDS011;58887;51.980;4.464;2023-01-16T08:18:15;1.04;;;0.90;;
71183;SDS011;58887;51.980;4.464;2023-01-16T08:20:42;3.19;;;2.71;;
71183;SDS011;58887;51.980;4.464;2023-01-16T08:23:09;1.28;;;1.11;;
71183;SDS011;58887;51.980;4.464;2023-01-16T08:25:35;5.18;;;5.02;;
71183;SDS011;58887;51.980;4.464;2023-01-16T08:28:00;0.85;;;0.85;;
71183;SDS011;58887;51.980;4.464;2023-01-16T08:30:26;0.99;;;0.99;;
71183;SDS011;58887;51.980;4.464;2023-01-16T08:32:57;0.78;;;0.78;;
71183;SDS011;58887;51.980;4.464;2023-01-16T08:35:23;0.91;;;0.91;;
71183;SDS011;58887;51.980;4.464;2023-01-16T08:37:49;1.02;;;1.02;;
71183;SDS011;58887;51.980;4.464;2023-01-16T08:40:15;0.91;;;0.91;;
71183;SDS011;58887;51.980;4.464;2023-01-16T08:42:41;0.96;;;0.96;;
71183;SDS011;58887;51.980;4.464;2023-01-16T08:45:25;1.04;;;1.02;;
71183;SDS011;58887;51.980;4.464;2023-01-16T08:48:09;1.31;;;1.27;;
71183;SDS011;58887;51.980;4.464;2023-01-16T08:50:54;1.34;;;1.30;;
71183;SDS011;58887;51.980;4.464;2023-01-16T08:53:40;0.95;;;0.95;;
71183;SDS011;58887;51.980;4.464;2023-01-16T08:56:06;1.09;;;1.09;;
71183;SDS011;58887;51.980;4.464;2023-01-16T08:58:32;1.66;;;1.66;;
71183;SDS011;58887;51.980;4.464;2023-01-16T09:00:57;0.98;;;0.98;;
71183;SDS011;58887;51.980;4.464;2023-01-16T09:03:22;1.13;;;1.13;;
71183;SDS011;58887;51.980;4.464;2023-01-16T09:05:48;2.20;;;2.20;;
71183;SDS011;58887;51.980;4.464;2023-01-16T09:08:13;1.08;;;1.08;;
71183;SDS011;58887;51.980;4.464;2023-01-16T09:10:39;1.05;;;1.05;;
71183;SDS011;58887;51.980;4.464;2023-01-16T09:13:04;1.18;;;1.18;;
71183;SDS011;58887;51.980;4.464;2023-01-16T09:15:48;1.33;;;1.33;;
71183;SDS011;58887;51.980;4.464;2023-01-16T09:18:14;1.15;;;1.15;;
71183;SDS011;58887;51.980;4.464;2023-01-16T09:20:40;1.28;;;1.28;;
71183;SDS011;58887;51.980;4.464;2023-01-16T09:23:05;1.54;;;1.54;;
71183;SDS011;58887;51.980;4.464;2023-01-16T09:25:31;1.22;;;1.22;;
71183;SDS011;58887;51.980;4.464;2023-01-16T09:27:58;1.25;;;1.25;;
71183;SDS011;58887;51.980;4.464;2023-01-16T09:30:25;1.24;;;1.24;;
71183;SDS011;58887;51.980;4.464;2023-01-16T09:32:51;1.40;;;1.40;;
71183;SDS011;58887;51.980;4.464;2023-01-16T09:35:17;1.37;;;1.37;;
71183;SDS011;58887;51.980;4.464;2023-01-16T09:37:43;1.03;;;1.03;;
71183;SDS011;58887;51.980;4.464;2023-01-16T09:40:19;1.36;;;1.36;;
71183;SDS011;58887;51.980;4.464;2023-01-16T09:45:48;1.06;;;1.06;;
71183;SDS011;58887;51.980;4.464;2023-01-16T09:48:20;1.10;;;1.10;;
71183;SDS011;58887;51.980;4.464;2023-01-16T09:50:54;1.26;;;1.26;;
71183;SDS011;58887;51.980;4.464;2023-01-16T09:53:32;1.31;;;1.31;;
71183;SDS011;58887;51.980;4.464;2023-01-16T09:56:18;1.19;;;1.19;;
71183;SDS011;58887;51.980;4.464;2023-01-16T09:59:27;1.06;;;1.06;;
71183;SDS011;58887;51.980;4.464;2023-01-16T10:02:08;1.03;;;1.02;;
71183;SDS011;58887;51.980;4.464;2023-01-16T10:04:52;1.06;;;1.05;;
71183;SDS011;58887;51.980;4.464;2023-01-16T10:10:23;1.86;;;1.86;;
71183;SDS011;58887;51.980;4.464;2023-01-16T10:16:00;1.09;;;1.09;;
71183;SDS011;58887;51.980;4.464;2023-01-16T10:21:34;1.09;;;1.09;;
71183;SDS011;58887;51.980;4.464;2023-01-16T10:24:12;1.12;;;1.12;;
71183;SDS011;58887;51.980;4.464;2023-01-16T10:27:00;1.02;;;1.02;;
71183;SDS011;58887;51.980;4.464;2023-01-16T10:29:53;1.05;;;1.05;;
71183;SDS011;58887;51.980;4.464;2023-01-16T10:35:20;0.97;;;0.97;;
71183;SDS011;58887;51.980;4.464;2023-01-16T10:37:50;0.92;;;0.92;;
71183;SDS011;58887;51.980;4.464;2023-01-16T10:42:56;1.02;;;1.02;;
71183;SDS011;58887;51.980;4.464;2023-01-16T10:45:55;1.03;;;1.03;;
71183;SDS011;58887;51.980;4.464;2023-01-16T10:48:48;0.85;;;0.85;;
71183;SDS011;58887;51.980;4.464;2023-01-16T10:51:32;1.03;;;1.03;;
71183;SDS011;58887;51.980;4.464;2023-01-16T10:53:59;1.08;;;1.08;;
71183;SDS011;58887;51.980;4.464;2023-01-16T10:56:25;0.94;;;0.94;;
71183;SDS011;58887;51.980;4.464;2023-01-16T10:58:51;0.95;;;0.95;;
71183;SDS011;58887;51.980;4.464;2023-01-16T11:01:20;0.85;;;0.85;;
71183;SDS011;58887;51.980;4.464;2023-01-16T11:03:50;1.23;;;1.23;;
71183;SDS011;58887;51.980;4.464;2023-01-16T11:06:23;0.88;;;0.88;;
71183;SDS011;58887;51.980;4.464;2023-01-16T11:08:54;0.92;;;0.92;;
71183;SDS011;58887;51.980;4.464;2023-01-16T11:11:27;0.74;;;0.74;;
71183;SDS011;58887;51.980;4.464;2023-01-16T11:14:13;0.71;;;0.71;;
71183;SDS011;58887;51.980;4.464;2023-01-16T11:17:10;0.91;;;0.91;;
71183;SDS011;58887;51.980;4.464;2023-01-16T11:20:16;0.84;;;0.84;;
71183;SDS011;58887;51.980;4.464;2023-01-16T11:22:47;0.77;;;0.77;;
71183;SDS011;58887;51.980;4.464;2023-01-16T11:25:22;0.65;;;0.65;;
71183;SDS011;58887;51.980;4.464;2023-01-16T11:27:48;0.79;;;0.79;;
71183;SDS011;58887;51.980;4.464;2023-01-16T11:30:20;0.77;;;0.77;;
71183;SDS011;58887;51.980;4.464;2023-01-16T11:32:58;0.70;;;0.70;;
71183;SDS011;58887;51.980;4.464;2023-01-16T11:35:25;0.73;;;0.73;;
71183;SDS011;58887;51.980;4.464;2023-01-16T11:37:57;0.72;;;0.72;;
71183;SDS011;58887;51.980;4.464;2023-01-16T11:40:28;0.86;;;0.86;;
71183;SDS011;58887;51.980;4.464;2023-01-16T11:43:00;0.78;;;0.78;;
71183;SDS011;58887;51.980;4.464;2023-01-16T11:45:56;0.63;;;0.63;;
71183;SDS011;58887;51.980;4.464;2023-01-16T11:48:41;0.54;;;0.54;;
71183;SDS011;58887;51.980;4.464;2023-01-16T11:51:17;0.58;;;0.58;;
71183;SDS011;58887;51.980;4.464;2023-01-16T11:53:47;0.45;;;0.45;;
71183;SDS011;58887;51.980;4.464;2023-01-16T12:04:23;0.60;;;0.60;;
71183;SDS011;58887;51.980;4.464;2023-01-16T12:09:51;0.45;;;0.45;;
71183;SDS011;58887;51.980;4.464;2023-01-16T12:12:41;0.59;;;0.59;;
71183;SDS011;58887;51.980;4.464;2023-01-16T12:18:31;0.74;;;0.74;;
71183;SDS011;58887;51.980;4.464;2023-01-16T12:21:21;0.60;;;0.60;;
71183;SDS011;58887;51.980;4.464;2023-01-16T12:26:48;0.54;;;0.54;;
71183;SDS011;58887;51.980;4.464;2023-01-16T12:32:30;0.58;;;0.58;;
71183;SDS011;58887;51.980;4.464;2023-01-16T12:35:23;0.62;;;0.62;;
71183;SDS011;58887;51.980;4.464;2023-01-16T12:38:12;0.62;;;0.62;;
71183;SDS011;58887;51.980;4.464;2023-01-16T12:40:47;0.79;;;0.79;;
71183;SDS011;58887;51.980;4.464;2023-01-16T12:43:46;0.63;;;0.63;;
71183;SDS011;58887;51.980;4.464;2023-01-16T12:54:33;0.85;;;0.85;;
71183;SDS011;58887;51.980;4.464;2023-01-16T13:06:20;0.84;;;0.84;;
71183;SDS011;58887;51.980;4.464;2023-01-16T13:08:58;0.92;;;0.92;;
71183;SDS011;58887;51.980;4.464;2023-01-16T13:11:36;0.98;;;0.98;;
71183;SDS011;58887;51.980;4.464;2023-01-16T13:14:29;0.88;;;0.88;;
71183;SDS011;58887;51.980;4.464;2023-01-16T13:17:17;0.93;;;0.93;;
71183;SDS011;58887;51.980;4.464;2023-01-16T13:19:51;0.82;;;0.82;;
71183;SDS011;58887;51.980;4.464;2023-01-16T13:25:05;1.03;;;1.03;;
71183;SDS011;58887;51.980;4.464;2023-01-16T13:27:47;1.12;;;1.12;;
71183;SDS011;58887;51.980;4.464;2023-01-16T13:30:46;0.98;;;0.98;;
71183;SDS011;58887;51.980;4.464;2023-01-16T13:33:20;1.12;;;1.12;;
71183;SDS011;58887;51.980;4.464;2023-01-16T13:38:46;1.18;;;1.18;;
71183;SDS011;58887;51.980;4.464;2023-01-16T13:41:23;1.34;;;1.34;;
71183;SDS011;58887;51.980;4.464;2023-01-16T13:47:06;1.07;;;1.07;;
71183;SDS011;58887;51.980;4.464;2023-01-16T13:49:36;1.09;;;1.09;;
71183;SDS011;58887;51.980;4.464;2023-01-16T13:52:03;1.09;;;1.09;;
71183;SDS011;58887;51.980;4.464;2023-01-16T13:54:36;1.10;;;1.10;;
71183;SDS011;58887;51.980;4.464;2023-01-16T13:57:09;1.32;;;1.32;;
71183;SDS011;58887;51.980;4.464;2023-01-16T13:59:53;1.12;;;1.12;;
71183;SDS011;58887;51.980;4.464;2023-01-16T14:15:55;1.49;;;1.49;;
71183;SDS011;58887;51.980;4.464;2023-01-16T14:18:41;1.76;;;1.76;;
71183;SDS011;58887;51.980;4.464;2023-01-16T14:21:26;1.82;;;1.82;;
71183;SDS011;58887;51.980;4.464;2023-01-16T14:24:01;1.70;;;1.70;;
71183;SDS011;58887;51.980;4.464;2023-01-16T14:26:38;1.73;;;1.73;;
71183;SDS011;58887;51.980;4.464;2023-01-16T14:29:20;2.65;;;2.65;;
71183;SDS011;58887;51.980;4.464;2023-01-16T14:34:37;2.51;;;2.50;;
71183;SDS011;58887;51.980;4.464;2023-01-16T14:37:52;2.29;;;2.28;;
71183;SDS011;58887;51.980;4.464;2023-01-16T14:42:35;1.73;;;1.73;;
71183;SDS011;58887;51.980;4.464;2023-01-16T14:45:33;1.94;;;1.94;;
71183;SDS011;58887;51.980;4.464;2023-01-16T14:53:54;1.87;;;1.87;;
71183;SDS011;58887;51.980;4.464;2023-01-16T14:56:59;2.09;;;2.09;;
71183;SDS011;58887;51.980;4.464;2023-01-16T14:59:33;2.37;;;2.37;;
71183;SDS011;58887;51.980;4.464;2023-01-16T15:02:17;2.21;;;2.21;;
71183;SDS011;58887;51.980;4.464;2023-01-16T15:07:51;2.45;;;2.45;;
71183;SDS011;58887;51.980;4.464;2023-01-16T15:10:31;2.32;;;2.32;;
71183;SDS011;58887;51.980;4.464;2023-01-16T15:15:51;1.65;;;1.65;;
71183;SDS011;58887;51.980;4.464;2023-01-16T15:18:23;1.14;;;1.14;;
71183;SDS011;58887;51.980;4.464;2023-01-16T15:21:10;1.06;;;1.06;;
71183;SDS011;58887;51.980;4.464;2023-01-16T15:23:57;1.37;;;1.37;;
71183;SDS011;58887;51.980;4.464;2023-01-16T15:26:32;1.12;;;1.12;;
71183;SDS011;58887;51.980;4.464;2023-01-16T15:32:18;0.83;;;0.83;;
71183;SDS011;58887;51.980;4.464;2023-01-16T15:34:46;0.84;;;0.84;;
71183;SDS011;58887;51.980;4.464;2023-01-16T15:37:34;0.57;;;0.57;;
71183;SDS011;58887;51.980;4.464;2023-01-16T15:39:59;0.56;;;0.56;;
71183;SDS011;58887;51.980;4.464;2023-01-16T15:42:28;0.38;;;0.38;;
71183;SDS011;58887;51.980;4.464;2023-01-16T15:48:15;0.44;;;0.44;;
71183;SDS011;58887;51.980;4.464;2023-01-16T15:51:09;0.41;;;0.41;;
71183;SDS011;58887;51.980;4.464;2023-01-16T15:53:37;0.27;;;0.27;;
71183;SDS011;58887;51.980;4.464;2023-01-16T15:56:29;0.28;;;0.28;;
71183;SDS011;58887;51.980;4.464;2023-01-16T15:59:27;0.39;;;0.39;;
71183;SDS011;58887;51.980;4.464;2023-01-16T16:04:46;2.79;;;2.79;;
71183;SDS011;58887;51.980;4.464;2023-01-16T16:07:16;5.32;;;5.26;;
71183;SDS011;58887;51.980;4.464;2023-01-16T16:09:42;12.12;;;11.75;;
71183;SDS011;58887;51.980;4.464;2023-01-16T16:12:14;5.13;;;5.03;;
71183;SDS011;58887;51.980;4.464;2023-01-16T16:14:40;0.82;;;0.81;;
71183;SDS011;58887;51.980;4.464;2023-01-16T16:17:25;0.54;;;0.54;;
71183;SDS011;58887;51.980;4.464;2023-01-16T16:25:50;0.95;;;0.95;;
71183;SDS011;58887;51.980;4.464;2023-01-16T16:34:31;0.42;;;0.42;;
71183;SDS011;58887;51.980;4.464;2023-01-16T16:36:42;0.44;;;0.44;;
71183;SDS011;58887;51.980;4.464;2023-01-16T16:41:51;0.38;;;0.38;;
71183;SDS011;58887;51.980;4.464;2023-01-16T16:44:37;0.43;;;0.43;;
71183;SDS011;58887;51.980;4.464;2023-01-16T16:47:19;0.46;;;0.46;;
71183;SDS011;58887;51.980;4.464;2023-01-16T16:49:53;0.40;;;0.40;;
71183;SDS011;58887;51.980;4.464;2023-01-16T16:52:19;0.32;;;0.32;;
71183;SDS011;58887;51.980;4.464;2023-01-16T16:54:56;0.32;;;0.32;;
71183;SDS011;58887;51.980;4.464;2023-01-16T16:57:23;0.46;;;0.46;;
71183;SDS011;58887;51.980;4.464;2023-01-16T16:59:52;0.28;;;0.28;;
71183;SDS011;58887;51.980;4.464;2023-01-16T17:02:20;0.42;;;0.42;;
71183;SDS011;58887;51.980;4.464;2023-01-16T17:04:47;0.40;;;0.39;;
71183;SDS011;58887;51.980;4.464;2023-01-16T17:07:13;0.39;;;0.38;;
71183;SDS011;58887;51.980;4.464;2023-01-16T17:09:38;3.56;;;3.50;;
71183;SDS011;58887;51.980;4.464;2023-01-16T17:12:14;8.49;;;7.89;;
71183;SDS011;58887;51.980;4.464;2023-01-16T17:14:42;1.49;;;1.36;;
71183;SDS011;58887;51.980;4.464;2023-01-16T17:17:11;0.61;;;0.57;;
71183;SDS011;58887;51.980;4.464;2023-01-16T17:19:39;1.00;;;0.94;;
71183;SDS011;58887;51.980;4.464;2023-01-16T17:22:04;0.57;;;0.54;;
71183;SDS011;58887;51.980;4.464;2023-01-16T17:24:30;0.72;;;0.70;;
71183;SDS011;58887;51.980;4.464;2023-01-16T17:26:56;0.74;;;0.72;;
71183;SDS011;58887;51.980;4.464;2023-01-16T17:29:21;0.89;;;0.88;;
71183;SDS011;58887;51.980;4.464;2023-01-16T17:31:47;0.70;;;0.69;;
71183;SDS011;58887;51.980;4.464;2023-01-16T17:34:17;0.56;;;0.56;;
71183;SDS011;58887;51.980;4.464;2023-01-16T17:36:44;0.48;;;0.48;;
71183;SDS011;58887;51.980;4.464;2023-01-16T17:39:11;0.88;;;0.87;;
71183;SDS011;58887;51.980;4.464;2023-01-16T17:41:37;0.81;;;0.80;;
71183;SDS011;58887;51.980;4.464;2023-01-16T17:44:25;0.84;;;0.82;;
71183;SDS011;58887;51.980;4.464;2023-01-16T17:47:10;0.44;;;0.43;;
71183;SDS011;58887;51.980;4.464;2023-01-16T17:49:36;0.43;;;0.42;;
71183;SDS011;58887;51.980;4.464;2023-01-16T17:52:22;0.44;;;0.42;;
71183;SDS011;58887;51.980;4.464;2023-01-16T17:54:48;0.56;;;0.54;;
71183;SDS011;58887;51.980;4.464;2023-01-16T17:57:31;0.62;;;0.59;;
71183;SDS011;58887;51.980;4.464;2023-01-16T17:59:58;0.41;;;0.39;;